Flight Track Log - Related Links

Times and Time Zones

All times are in EDT time to prevent confusion due to time zone crossing. See the SLI231 flight status page for this flight to view local times or setup timezone preferences in your user account.

Time Position Orientation Groundspeed Altitude Reporting Facility
EDT Latitude Longitude Course Direction KTS MPH feet Rate Location/Type
Tue 03:55:00 PM 25.1575 -103.1044 146° Southeast  Level Estimated
Tue 03:56:00 PM 25.0753 -103.0434 146° Southeast  Level Estimated
Tue 03:57:00 PM 24.9930 -102.9825 146° Southeast  Level Estimated
Tue 03:58:00 PM 24.9107 -102.9217 146° Southeast  Level Estimated
Tue 03:59:00 PM 24.8284 -102.8609 146° Southeast  Level Estimated
Tue 04:00:00 PM 24.7461 -102.8002 146° Southeast  Level Estimated
Tue 04:01:00 PM 24.6637 -102.7397 146° Southeast  Level Estimated
Tue 04:02:00 PM 24.5813 -102.6792 146° Southeast  Level Estimated
Tue 04:03:00 PM 24.4989 -102.6187 146° Southeast  Level Estimated
Tue 04:04:00 PM 24.4165 -102.5584 146° Southeast  Level Estimated
Tue 04:05:00 PM 24.3341 -102.4981 146° Southeast  Level Estimated
Tue 04:06:00 PM 24.2516 -102.4379 146° Southeast  Level Estimated
Tue 04:07:00 PM 24.1691 -102.3778 146° Southeast  Level Estimated
Tue 04:08:00 PM 24.0866 -102.3178 146° Southeast  Level Estimated
Tue 04:09:00 PM 24.0040 -102.2578 146° Southeast  Level Estimated
Tue 04:10:00 PM 23.9214 -102.1980 146° Southeast  Level Estimated
Tue 04:11:00 PM 23.8389 -102.1382 146° Southeast  Level Estimated
Tue 04:12:00 PM 23.7562 -102.0784 147° Southeast  Level Estimated
Tue 04:13:00 PM 23.6736 -102.0188 147° Southeast  Level Estimated
Tue 04:14:00 PM 23.5909 -101.9592 147° Southeast  Level Estimated
Tue 04:15:00 PM 23.5082 -101.8997 147° Southeast  Level Estimated
Tue 04:16:00 PM 23.4255 -101.8403 147° Southeast  Level Estimated
Tue 04:17:00 PM 23.3428 -101.7809 147° Southeast  Level Estimated
Tue 04:18:00 PM 23.2601 -101.7216 147° Southeast  Level Estimated
Tue 04:19:00 PM 23.1773 -101.6624 147° Southeast  Level Estimated
Tue 04:20:00 PM 23.0945 -101.6033 147° Southeast  Level Estimated
Tue 04:21:00 PM 23.0117 -101.5442 147° Southeast  Level Estimated
Tue 04:22:00 PM 22.9288 -101.4853 147° Southeast  Level Estimated
Tue 04:23:00 PM 22.8460 -101.4264 147° Southeast  Level Estimated
Tue 04:24:00 PM 22.7631 -101.3675 147° Southeast  Level Estimated
Tue 04:25:00 PM 22.6802 -101.3087 147° Southeast  Level Estimated
Tue 04:26:00 PM 22.5973 -101.2500 147° Southeast  Level Estimated
Tue 04:27:00 PM 22.5143 -101.1914 147° Southeast  Level Estimated
Tue 04:28:00 PM 22.4313 -101.1329 147° Southeast  Level Estimated
Tue 04:29:00 PM 22.3484 -101.0744 147° Southeast  Level Estimated
Tue 04:30:00 PM 22.2653 -101.0159 147° Southeast  Level Estimated
Tue 04:31:00 PM 22.1823 -100.9576 147° Southeast  Level Estimated
Tue 04:32:00 PM 22.0993 -100.8993 147° Southeast  Level Estimated
Tue 04:33:00 PM 22.0162 -100.8411 147° Southeast  Level Estimated
Tue 04:34:00 PM 21.9331 -100.7830 147° Southeast  Level Estimated
Tue 04:35:00 PM 21.8500 -100.7249 147° Southeast  Level Estimated
Tue 04:36:00 PM 21.7669 -100.6669 147° Southeast  Level Estimated
Tue 04:37:00 PM 21.6837 -100.6089 147° Southeast  Level Estimated
Tue 04:38:00 PM 21.6005 -100.5511 147° Southeast  Level Estimated
Tue 04:39:00 PM 21.5173 -100.4933 147° Southeast  Level Estimated
Tue 04:40:00 PM 21.4341 -100.4355 147° Southeast  Level Estimated
Tue 04:41:00 PM 21.3509 -100.3779 147° Southeast  Level Estimated
Tue 04:42:00 PM 21.2677 -100.3202 147° Southeast  Level Estimated
Tue 04:43:00 PM 21.1844 -100.2627 147° Southeast  Level Estimated
Tue 04:44:00 PM 21.1011 -100.2052 147° Southeast  Level Estimated
Tue 04:45:00 PM 21.0178 -100.1478 147° Southeast  Level Estimated
Tue 04:46:00 PM 20.9345 -100.0905 147° Southeast  Level Estimated
Tue 04:47:00 PM 20.8511 -100.0332 147° Southeast  Level Estimated
Tue 04:48:00 PM 20.7677 -99.9760 147° Southeast  Level Estimated
Tue 04:49:00 PM 20.6843 -99.9188 147° Southeast  Level Estimated
Tue 04:50:00 PM 20.6009 -99.8617 147° Southeast  Level Estimated
Tue 04:51:00 PM 20.5175 -99.8047 147° Southeast  Level Estimated
Tue 04:52:00 PM 20.4341 -99.7477 147° Southeast  Level Estimated
Tue 04:53:00 PM 20.3506 -99.6908 147° Southeast  Level Estimated
Tue 04:54:00 PM 20.2671 -99.6339 147° Southeast  Level Estimated
Tue 04:55:00 PM 20.1836 -99.5771 147° Southeast  Level Estimated
Tue 04:56:00 PM 20.1001 -99.5204 147° Southeast  Level Estimated
Tue 04:57:00 PM 20.0166 -99.4637 147° Southeast  Level Estimated
Tue 04:58:00 PM 19.9330 -99.4071 148° Southeast  Level Estimated
Tue 04:59:00 PM 19.8494 -99.3506 148° Southeast  Level Estimated
Tue 05:00:00 PM 19.7659 -99.2941 148° Southeast  Level Estimated
Tue 05:01:00 PM 19.6822 -99.2377 148° Southeast  Level Estimated
Tue 05:02:00 PM 19.5986 -99.1813 148° Southeast  Level Estimated
Tue 05:03:00 PM 19.5150 -99.1250 148° Southeast  Level Estimated
Tue 05:04:00 PM 19.4363 -99.0721 148° Southeast  Level Estimated
Tue 05:05:00 PM 19.4363 -99.0721 43° Northeast  Level Estimated
Tue 05:06:00 PM 19.4363 -99.0721 43° Northeast  Level Estimated
Tue 05:07:00 PM 19.4363 -99.0721 43° Northeast  Level Estimated
Tue 05:08:00 PM 19.4363 -99.0721 43° Northeast  Level Estimated
Tue 05:09:00 PM 19.4363 -99.0721 43° Northeast  Level Estimated
Tue 05:10:00 PM 19.4363 -99.0721 43° Northeast  Level Estimated
Tue 05:11:00 PM 19.4363 -99.0721 43° Northeast  Level Estimated
Tue 05:12:00 PM 19.4363 -99.0721 43° Northeast  Level Estimated
Tue 05:13:00 PM 19.4363 -99.0721 43° Northeast  Level Estimated
Tue 05:14:00 PM 19.4363 -99.0721 43° Northeast  Level Estimated
Tue 05:15:00 PM 19.4363 -99.0721 43° Northeast  Level Estimated
Tue 05:16:00 PM 19.4363 -99.0721 43° Northeast  Level Estimated
Tue 05:17:00 PM 19.4363 -99.0721 43° Northeast  Level Estimated
Tue 05:18:00 PM 19.4363 -99.0721 43° Northeast  Level Estimated
Tue 05:19:00 PM 19.4363 -99.0721 43° Northeast  Level Estimated
Tue 05:20:00 PM 19.4363 -99.0721 43° Northeast  Level Estimated

Login

Don't have an account? Register now (free) for customized features, flight alerts, and more!